Golovin, Alaska
Current Conditions -  °F | °C
As of 1:54 PM on Thursday 23 Oct 2014 (Local Time) from PAWM Reporting Station
Light Snow Light Snow  
Wind Chill: 20°   Ceiling: 500
Heat Index: 30°   Visibility: 1.2mi
Dew Point: 28°   Wind: 13mph
Humidity: 93%   Direction: 160°SSE
Pressure: 29.68"   Gusts: NA
Location:  64.56°N, 163.01°W
Report Text: PAWM 232154Z AUTO 16011KT 1 1/4SM -SN BR BKN005 OVC009 M01/M02 A2968 RMK AO2 CIG 001V008 P0000 FZRANO
Loading
Personal Weather Stations






























Interactive Weather Map
Tropical Storm Tracking
New forecast layout! Learn more

10-Day Weather Forecast

Advertisements
Track Severe Weather on mobile